Terminal Aerodrome Forecast
Issued by NWS

Current Version | Previous Version | Text Only | Print | Product List | Glossary Off
Versions: 1 2 3 4 5 6 7 8 9 10 11 12 13 14 15 16 17 18 19

000
FTUS41 KILN 250207 AAA
TAFLUK
TAF AMD
KLUK 250207Z 2502/2524 21010KT 6SM -SHRA VCTS OVC060CB
     FM250600 28014G24KT P6SM BKN050
     FM251300 26015G25KT P6SM OVC028
     FM251800 27015G25KT P6SM OVC040=

USA.gov is the U.S. government's official web portal to all federal, state and local government web resources and services.